Decoded Metar for LEZL (SEVILLA in SPAIN) (IATA:SVQ) | Meteo·Mobile Aviation Weather
aviador You're here:

LEZL Decoded Metar

SEVILLA in SPAIN
Report Time2019-09-23 08:30:00
UTC Time2019-09-23 08:54:01
Flight Rules vfr VFR
Wind040° at 07 kt
W.Decomp.*RWY 09: 4.7 kt HW 5.2 kt LCW
Visibility9999 m
Phenomena:N/A
Clouds:N/A
Expected CloudBase > 3,600 ft AGL from Temp-Dew spread
CeilingNone
Temp21°C (ISA +6)
Dew Point12°C (57% RH)
AAT19.1°C
QNH1021 hPa
Density Alt745 ft
Elevation102 ft
Report Wrong Elevation
Raw Report
METAR LEZL 230830Z 04007KT 350V070 CAVOK 21/12 Q1021 NOSIG=

Extra information for LEZL:More info

Metar Taf Metar & Taf Last 4 Metars F.Rules Stats Wind Profile Meteogram Temp Stats Airport Information Weather charts Add Link Nearby VenuesMetar ALERT Operation Metar Decoded Social comments